Data for 01/06/2016

Time Sea-Level Adjusted Pressure Absolute Pressure Temperature Relative Humidity Dew Point   
(mb) (inHg) (mb) (inHg) (C) (F) (%) (C) (F)
00:05 1011 29.85 840 24.81 -2.9 26.7 82 -5.5 22.1
00:10 1011 29.85 840 24.81 -2.5 27.5 80 -5.4 22.2
00:15 1011 29.85 840 24.81 -2.8 27 82 -5.4 22.3
00:20 1011 29.85 840 24.81 -2.5 27.6 79 -5.6 21.9
00:25 1011 29.85 840 24.81 -2.2 28 78 -5.6 21.9
00:30 1011 29.85 840 24.81 -2.2 28.1 78 -5.6 22
00:35 1011 29.85 840 24.81 -1.9 28.6 76 -5.6 21.9
00:40 1011 29.85 840 24.81 -1.9 28.5 77 -5.4 22.2
00:45 1011 29.85 840 24.81 -2.2 28.1 79 -5.3 22.5
00:50 1011 29.85 840 24.81 -1.8 28.8 76 -5.5 22.1
00:55 1011 29.85 840 24.81 -2.2 28.1 79 -5.3 22.4
01:00 1011 29.85 840 24.81 -2 28.4 79 -5.2 22.6
01:05 1011 29.85 840 24.81 -1.7 29 76 -5.3 22.4
01:10 1011 29.85 840 24.81 -1.5 29.3 73 -5.7 21.7
01:15 1010 29.83 840 24.81 -2.3 27.9 75 -6.1 21
01:20 1010 29.83 840 24.81 -2.8 27 77 -6.3 20.6
01:25 1010 29.83 840 24.81 -3.5 25.6 79 -6.6 20.1
01:30 1010 29.83 839 24.78 -3.7 25.3 81 -6.5 20.3
01:35 1010 29.83 839 24.78 -3.4 25.9 81 -6.2 20.9
01:40 1010 29.83 839 24.78 -3.2 26.3 79 -6.3 20.7
01:45 1010 29.83 839 24.78 -3.1 26.5 78 -6.4 20.6
01:50 1010 29.83 839 24.78 -3.5 25.8 79 -6.6 20.1
01:55 1010 29.83 839 24.78 -3.3 26.1 77 -6.7 19.9
02:00 1010 29.83 839 24.78 -2.6 27.3 76 -6.2 20.9
02:05 1010 29.83 839 24.78 -2.5 27.5 78 -5.9 21.4
02:10 1010 29.83 839 24.78 -2.3 27.8 77 -5.8 21.6
02:15 1010 29.83 839 24.78 -2.6 27.4 78 -6 21.2
02:20 1010 29.83 839 24.78 -2.8 27 78 -6.1 21
02:25 1010 29.83 840 24.81 -3.1 26.4 79 -6.2 20.9
02:30 1010 29.83 840 24.81 -3.3 26.1 81 -6.1 21
02:35 1010 29.83 839 24.78 -3.3 26 80 -6.2 20.8
02:40 1010 29.83 840 24.81 -3.4 25.8 81 -6.3 20.7
02:45 1010 29.83 840 24.81 -3.1 26.4 79 -6.2 20.8
02:50 1010 29.83 840 24.81 -2.8 26.9 78 -6.2 20.9
02:55 1010 29.83 840 24.81 -2.9 26.8 78 -6.2 20.8
03:00 1010 29.83 840 24.81 -3.4 25.9 80 -6.3 20.6
03:05 1010 29.83 839 24.78 -3.3 26 79 -6.5 20.3
03:10 1010 29.83 839 24.78 -2.5 27.5 77 -6 21.2
03:15 1010 29.83 839 24.78 -1.9 28.5 74 -6 21.2
03:20 1010 29.83 840 24.81 -2.6 27.4 77 -6.1 21.1
03:25 1010 29.83 840 24.81 -2.8 27 77 -6.2 20.8
03:30 1010 29.83 840 24.81 -2.7 27.1 77 -6.2 20.8
03:35 1010 29.83 840 24.81 -2.7 27.1 77 -6.2 20.8
03:40 1010 29.83 840 24.81 -2.7 27.2 77 -6.2 20.8
03:45 1010 29.83 840 24.81 -2.8 26.9 78 -6.2 20.9
03:50 1010 29.83 840 24.81 -3 26.7 78 -6.3 20.7
03:55 1010 29.83 840 24.81 -3.1 26.5 78 -6.4 20.4
04:00 1010 29.83 840 24.81 -2.9 26.7 78 -6.2 20.8
04:05 1010 29.83 840 24.81 -2.7 27.2 78 -6 21.1
04:10 1010 29.83 840 24.81 -2.6 27.3 77 -6.2 20.9
04:15 1010 29.83 840 24.81 -2.1 28.3 75 -6 21.2
04:20 1010 29.83 840 24.81 -2.6 27.3 77 -6.1 21
04:25 1010 29.83 840 24.81 -2.4 27.7 75 -6.2 20.9
04:30 1010 29.83 840 24.81 -2.4 27.7 77 -5.9 21.4
04:35 1010 29.83 840 24.81 -2 28.5 74 -6.1 21.1
04:40 1010 29.83 840 24.81 -2.3 27.9 75 -6.1 20.9
04:45 1010 29.83 840 24.81 -2.4 27.7 74 -6.4 20.6
04:50 1010 29.83 840 24.81 -2.9 26.8 75 -6.7 20
04:55 1010 29.83 840 24.81 -3.1 26.4 75 -6.9 19.6
05:00 1010 29.83 840 24.81 -3.3 26.1 75 -7 19.4
05:05 1010 29.83 839 24.78 -3.4 25.9 76 -7 19.3
05:10 1010 29.83 839 24.78 -3.2 26.3 76 -6.9 19.6
05:15 1010 29.83 839 24.78 -2.9 26.8 75 -6.7 19.9
05:20 1010 29.83 839 24.78 -3.1 26.4 77 -6.7 20
05:25 1010 29.83 839 24.78 -2.6 27.3 73 -6.8 19.7
05:30 1010 29.83 839 24.78 -2.3 27.9 71 -6.9 19.6
05:35 1010 29.83 839 24.78 -1.8 28.7 70 -6.6 20.2
05:40 1010 29.83 839 24.78 -1.6 29.1 69 -6.6 20.2
05:45 1010 29.83 839 24.78 -1.7 28.9 70 -6.5 20.4
05:50 1010 29.83 839 24.78 -1.7 29 69 -6.6 20.1
05:55 1010 29.83 839 24.78 -1.6 29.1 69 -6.6 20.2
06:00 1010 29.83 839 24.78 -1.7 29 69 -6.6 20.2
06:05 1010 29.83 839 24.78 -1.8 28.8 70 -6.6 20.1
06:10 1010 29.83 839 24.78 -1.6 29 70 -6.5 20.4
06:15 1010 29.83 839 24.78 -1.8 28.8 70 -6.5 20.3
06:20 1010 29.83 839 24.78 -1.9 28.5 71 -6.4 20.4
06:25 1010 29.83 839 24.78 -1.9 28.6 71 -6.5 20.4
06:30 1010 29.83 839 24.78 -2.1 28.1 73 -6.3 20.6
06:35 1010 29.83 839 24.78 -3.1 26.4 77 -6.6 20.1
06:40 1010 29.83 839 24.78 -3.1 26.4 77 -6.6 20
06:45 1010 29.83 839 24.78 -2.8 27 76 -6.5 20.3
06:50 1010 29.83 839 24.78 -2.2 28.1 72 -6.5 20.3
06:55 1010 29.83 839 24.78 -1.3 29.6 71 -6 21.2
07:00 1010 29.83 839 24.78 -2.1 28.2 73 -6.3 20.6
07:05 1010 29.83 839 24.78 -1.9 28.5 72 -6.3 20.6
07:10 1010 29.83 839 24.78 -2 28.4 70 -6.7 20
07:15 1010 29.83 839 24.78 -1.2 29.8 69 -6.1 21
07:20 1010 29.83 839 24.78 -1.4 29.4 71 -6.1 21.1
07:25 1010 29.83 839 24.78 -1.2 29.9 69 -6.1 21.1
07:30 1010 29.83 839 24.78 -1.4 29.6 74 -5.5 22.1
07:35 1010 29.83 839 24.78 -2.3 27.8 76 -6 21.1
07:40 1010 29.83 839 24.78 -2.4 27.6 76 -6.1 21
07:45 1010 29.83 839 24.78 -2.5 27.4 77 -6.1 21.1
07:50 1010 29.83 839 24.78 -2.8 26.9 78 -6.1 21
07:55 1010 29.83 839 24.78 -3 26.5 79 -6.2 20.9
08:00 1010 29.83 839 24.78 -3.1 26.5 79 -6.2 20.9
08:05 1010 29.83 839 24.78 -3 26.7 79 -6.2 20.9
08:10 1010 29.83 839 24.78 -2.7 27.1 78 -6 21.2
08:15 1010 29.83 839 24.78 -2.5 27.5 77 -6 21.2
08:20 1010 29.83 839 24.78 -2.5 27.5 76 -6.2 20.9
08:25 1010 29.83 839 24.78 -2.5 27.5 77 -6 21.2
08:30 1010 29.83 839 24.78 -2.5 27.5 76 -6.1 21.1
08:35 1010 29.83 839 24.78 -2.3 27.8 76 -6 21.3
08:40 1010 29.83 839 24.78 -2.5 27.4 77 -6 21.2
08:45 1010 29.83 839 24.78 -2.5 27.5 76 -6.1 21
08:50 1010 29.83 839 24.78 -2.5 27.4 76 -6.3 20.7
08:55 1010 29.83 839 24.78 -2.2 28.1 75 -6 21.2
09:00 1010 29.83 839 24.78 -2.1 28.1 75 -6 21.2
09:05 1010 29.83 839 24.78 -2 28.4 75 -5.9 21.4
09:10 1010 29.83 839 24.78 -2 28.4 75 -5.8 21.5
09:15 1010 29.83 839 24.78 -1.8 28.8 74 -5.8 21.6
09:20 1010 29.83 839 24.78 -1.4 29.4 73 -5.7 21.7
09:25 1010 29.83 839 24.78 -1.5 29.3 74 -5.6 22
09:30 1010 29.83 839 24.78 -1.7 28.9 73 -5.9 21.4
09:35 1010 29.83 839 24.78 -1.6 29.1 74 -5.7 21.8
09:40 1010 29.83 839 24.78 -1.7 29 76 -5.5 22.2
09:45 1010 29.83 839 24.78 -2 28.4 77 -5.6 21.9
09:50 1010 29.83 839 24.78 -2.2 28.1 78 -5.5 22.1
09:55 1010 29.83 839 24.78 -2.4 27.7 78 -5.7 21.8
10:00 1010 29.83 839 24.78 -2.4 27.7 78 -5.8 21.6
10:05 1010 29.83 839 24.78 -2.4 27.7 78 -5.7 21.8
10:10 1010 29.83 839 24.78 -2.3 27.8 78 -5.7 21.8
10:15 1010 29.83 839 24.78 -2.3 27.9 78 -5.6 21.9
10:20 1010 29.83 839 24.78 -2.1 28.3 77 -5.6 21.9
10:25 1010 29.83 839 24.78 -2 28.3 77 -5.6 21.9
10:30 1010 29.83 839 24.78 -2 28.3 76 -5.7 21.8
10:35 1010 29.83 839 24.78 -1.9 28.6 76 -5.6 21.9
10:40 1010 29.83 839 24.78 -1.7 29 76 -5.4 22.2
10:45 1010 29.83 839 24.78 -1.6 29.2 75 -5.5 22.1
10:50 1010 29.83 839 24.78 -1.6 29.1 76 -5.4 22.3
10:55 1010 29.83 839 24.78 -1.6 29.2 76 -5.3 22.4
11:00 1010 29.83 839 24.78 -1.3 29.6 74 -5.4 22.4
11:05 1010 29.83 839 24.78 -1.2 29.9 73 -5.3 22.4
11:10 1010 29.83 839 24.78 -1.4 29.5 75 -5.3 22.5
11:15 1010 29.83 839 24.78 -1.3 29.7 73 -5.4 22.2
11:20 1010 29.83 839 24.78 -1.1 30 73 -5.3 22.4
11:25 1010 29.83 839 24.78 -0.9 30.3 72 -5.4 22.3
11:30 1010 29.83 839 24.78 -0.8 30.6 72 -5.2 22.6
11:35 1010 29.83 839 24.78 -0.7 30.7 72 -5.1 22.7
11:40 1010 29.83 839 24.78 -0.3 31.4 70 -5.2 22.6
11:45 1010 29.83 839 24.78 -0 32 68 -5.2 22.6
11:50 1010 29.83 839 24.78 0.2 32.4 68 -4.9 23.1
11:55 1010 29.83 839 24.78 0.6 33 66 -5 23
12:00 1010 29.83 839 24.78 0.5 32.9 68 -4.8 23.3
12:05 1010 29.83 839 24.78 0.5 32.9 68 -4.7 23.5
12:10 1010 29.83 839 24.78 0.1 32.2 69 -4.9 23.1
12:15 1010 29.83 839 24.78 0.6 33 67 -4.9 23.2
12:20 1010 29.83 839 24.78 0.6 33 69 -4.4 24.1
12:25 1010 29.83 839 24.78 0.7 33.2 68 -4.5 24
12:30 1010 29.83 839 24.78 0.9 33.6 67 -4.5 23.9
12:35 1010 29.83 839 24.78 0.9 33.7 67 -4.5 23.9
12:40 1010 29.83 839 24.78 1.3 34.4 66 -4.4 24.1
12:45 1010 29.83 839 24.78 1.7 35.1 63 -4.5 23.9
12:50 1010 29.83 839 24.78 2.1 35.8 62 -4.4 24.1
12:55 1009 29.8 839 24.78 2.3 36.2 63 -4.1 24.7
13:00 1009 29.8 839 24.78 2.5 36.5 59 -4.6 23.7
13:05 1009 29.8 839 24.78 3.1 37.6 57 -4.5 23.9
13:10 1009 29.8 838 24.75 3.4 38 58 -4 24.8
13:15 1009 29.8 838 24.75 3.2 37.7 58 -4.3 24.3
13:20 1009 29.8 838 24.75 3.3 37.9 58 -4.2 24.4
13:25 1009 29.8 838 24.75 3 37.3 60 -4.1 24.7
13:30 1009 29.8 838 24.75 2.5 36.4 62 -4.1 24.5
13:35 1009 29.8 838 24.75 2.4 36.3 61 -4.4 24
13:40 1009 29.8 838 24.75 2.3 36.1 63 -4.1 24.5
13:45 1009 29.8 838 24.75 2.2 36 62 -4.2 24.4
13:50 1009 29.8 838 24.75 2.3 36.1 64 -3.9 25
13:55 1009 29.8 838 24.75 2.1 35.8 64 -3.9 25
14:00 1009 29.8 838 24.75 1.8 35.2 67 -3.7 25.3
14:05 1009 29.8 838 24.75 1.4 34.4 69 -3.8 25.2
14:10 1009 29.8 838 24.75 1.2 34.1 69 -3.9 24.9
14:15 1009 29.8 838 24.75 1.1 33.9 68 -4.2 24.5
14:20 1009 29.8 838 24.75 1 33.7 69 -4.2 24.5
14:25 1009 29.8 838 24.75 1 33.8 69 -4.1 24.6
14:30 1009 29.8 838 24.75 0.8 33.4 70 -4.1 24.6
14:35 1009 29.8 838 24.75 0.8 33.4 70 -4.1 24.7
14:40 1009 29.8 838 24.75 0.4 32.8 72 -4 24.8
14:45 1009 29.8 838 24.75 0 32 73 -4.3 24.3
14:50 1009 29.8 838 24.75 0.2 32.4 71 -4.3 24.2
14:55 1009 29.8 838 24.75 0.4 32.8 70 -4.3 24.2
15:00 1009 29.8 838 24.75 0.9 33.6 69 -4.2 24.5
15:05 1008 29.77 838 24.75 1.3 34.3 69 -3.9 25.1
15:10 1008 29.77 838 24.75 1.5 34.7 68 -3.8 25.2
15:15 1009 29.8 838 24.75 1.4 34.5 67 -4 24.8
15:20 1009 29.8 838 24.75 1.5 34.7 67 -3.9 24.9
15:25 1009 29.8 838 24.75 1.5 34.7 67 -4 24.8
15:30 1009 29.8 838 24.75 1.4 34.5 68 -3.9 24.9
15:35 1008 29.77 838 24.75 1.4 34.5 68 -4 24.9
15:40 1008 29.77 838 24.75 1.1 33.9 69 -4 24.8
15:45 1008 29.77 838 24.75 1.1 34 69 -3.9 24.9
15:50 1008 29.77 838 24.75 1.3 34.4 69 -3.8 25.2
15:55 1008 29.77 838 24.75 1.2 34.2 70 -3.6 25.5
16:00 1008 29.77 838 24.75 1.1 34 70 -3.8 25.2
16:05 1008 29.77 838 24.75 1.2 34.2 69 -3.9 25
16:10 1008 29.77 838 24.75 1.2 34.2 69 -3.8 25.2
16:15 1008 29.77 838 24.75 1 33.7 71 -3.7 25.4
16:20 1008 29.77 838 24.75 1 33.9 70 -3.8 25.2
16:25 1008 29.77 838 24.75 1.3 34.3 70 -3.7 25.4
16:30 1008 29.77 838 24.75 1.6 34.8 68 -3.7 25.4
16:35 1008 29.77 838 24.75 1.7 35.1 68 -3.6 25.6
16:40 1008 29.77 838 24.75 1.7 35.1 69 -3.4 25.8
16:45 1008 29.77 838 24.75 1.8 35.2 68 -3.6 25.6
16:50 1008 29.77 838 24.75 1.3 34.4 70 -3.5 25.7
16:55 1008 29.77 838 24.75 1.2 34.1 71 -3.5 25.6
17:00 1009 29.8 838 24.75 1.2 34.2 72 -3.3 26
17:05 1009 29.8 838 24.75 1.1 34.1 73 -3.2 26.2
17:10 1009 29.8 838 24.75 0.6 33.1 76 -3.2 26.2
17:15 1009 29.8 838 24.75 0.7 33.2 75 -3.3 26.1
17:20 1009 29.8 838 24.75 1.1 34 72 -3.4 25.8
17:25 1009 29.8 838 24.75 0.8 33.4 74 -3.3 26
17:30 1009 29.8 838 24.75 0.4 32.7 76 -3.4 25.8
17:35 1009 29.8 838 24.75 0.2 32.4 77 -3.4 25.8
17:40 1009 29.8 838 24.75 0.1 32.2 77 -3.5 25.8
17:45 1009 29.8 838 24.75 -0 32 78 -3.5 25.8
17:50 1009 29.8 838 24.75 -0.2 31.7 79 -3.5 25.8
17:55 1009 29.8 838 24.75 -0.2 31.6 78 -3.6 25.6
18:00 1009 29.8 838 24.75 -0.2 31.6 78 -3.6 25.6
18:05 1009 29.8 838 24.75 -0.2 31.6 77 -3.7 25.3
18:10 1009 29.8 838 24.75 -0.1 31.7 75 -4.1 24.7
18:15 1009 29.8 838 24.75 0 32 75 -3.9 24.9
18:20 1009 29.8 838 24.75 -0 32 75 -4 24.8
18:25 1009 29.8 838 24.75 -0 31.9 76 -3.8 25.1
18:30 1009 29.8 838 24.75 0 32.1 75 -3.9 25.1
18:35 1009 29.8 838 24.75 0.1 32.2 76 -3.6 25.6
18:40 1009 29.8 838 24.75 0.1 32.2 77 -3.5 25.7
18:45 1009 29.8 838 24.75 -0 32 78 -3.4 25.9
18:50 1009 29.8 838 24.75 -0.2 31.6 79 -3.4 25.9
18:55 1009 29.8 838 24.75 -0.4 31.3 80 -3.4 26
19:00 1009 29.8 838 24.75 -0.6 30.8 81 -3.5 25.8
19:05 1009 29.8 838 24.75 -0.7 30.7 82 -3.5 25.7
19:10 1009 29.8 838 24.75 -0.8 30.6 82 -3.5 25.6
19:15 1008 29.77 838 24.75 -0.9 30.4 82 -3.5 25.6
19:20 1008 29.77 838 24.75 -1 30.2 82 -3.7 25.4
19:25 1008 29.77 838 24.75 -1 30.1 83 -3.6 25.4
19:30 1008 29.77 838 24.75 -1.1 30 83 -3.6 25.4
19:35 1008 29.77 838 24.75 -1.1 30 83 -3.7 25.3
19:40 1008 29.77 838 24.75 -1.3 29.7 83 -3.8 25.2
19:45 1008 29.77 838 24.75 -1.3 29.7 83 -3.8 25.2
19:50 1008 29.77 838 24.75 -1.3 29.6 83 -3.8 25.2
19:55 1008 29.77 838 24.75 -1.3 29.6 84 -3.8 25.2
20:00 1008 29.77 838 24.75 -1.3 29.6 83 -3.8 25.1
20:05 1008 29.77 838 24.75 -1.4 29.5 83 -3.8 25.1
20:10 1008 29.77 838 24.75 -1.4 29.5 84 -3.8 25.2
20:15 1009 29.8 838 24.75 -1.5 29.3 84 -3.8 25.2
20:20 1009 29.8 838 24.75 -1.5 29.4 84 -3.8 25.2
20:25 1009 29.8 838 24.75 -1.4 29.5 84 -3.7 25.3
20:30 1009 29.8 838 24.75 -1.3 29.6 84 -3.7 25.3
20:35 1008 29.77 838 24.75 -1.2 29.9 83 -3.7 25.3
20:40 1008 29.77 838 24.75 -1.1 29.9 82 -3.8 25.2
20:45 1008 29.77 838 24.75 -1.2 29.8 83 -3.8 25.1
20:50 1008 29.77 838 24.75 -1.4 29.6 83 -3.9 25
20:55 1008 29.77 838 24.75 -1.5 29.2 84 -3.9 25
21:00 1008 29.77 838 24.75 -1.7 28.9 85 -3.9 25
21:05 1008 29.77 838 24.75 -1.8 28.8 85 -3.9 24.9
21:10 1008 29.77 838 24.75 -1.8 28.7 86 -3.9 25
21:15 1008 29.77 838 24.75 -1.9 28.6 86 -4 24.9
21:20 1008 29.77 838 24.75 -1.9 28.6 85 -4 24.7
21:25 1008 29.77 838 24.75 -1.8 28.7 85 -4 24.8
21:30 1008 29.77 838 24.75 -1.6 29.2 84 -3.9 25
21:35 1008 29.77 838 24.75 -1.4 29.4 83 -4 24.8
21:40 1008 29.77 838 24.75 -1.6 29.1 84 -4 24.8
21:45 1008 29.77 838 24.75 -1.8 28.8 85 -4 24.8
21:50 1008 29.77 838 24.75 -1.9 28.6 86 -4 24.8
21:55 1008 29.77 838 24.75 -2 28.4 86 -4.1 24.6
22:00 1008 29.77 838 24.75 -2.1 28.2 85 -4.3 24.3
22:05 1008 29.77 838 24.75 -2.3 27.8 86 -4.3 24.2
22:10 1008 29.77 838 24.75 -2.2 28.1 85 -4.4 24.1
22:15 1008 29.77 838 24.75 -2.2 28 85 -4.4 24.1
22:20 1008 29.77 838 24.75 -2.1 28.2 84 -4.4 24.1
22:25 1008 29.77 838 24.75 -2.1 28.1 85 -4.4 24.1
22:30 1008 29.77 838 24.75 -1.9 28.6 84 -4.3 24.2
22:35 1008 29.77 838 24.75 -1.8 28.7 83 -4.3 24.2
22:40 1008 29.77 837 24.72 -1.9 28.5 83 -4.4 24
22:45 1008 29.77 838 24.75 -2.1 28.3 83 -4.6 23.8
22:50 1008 29.77 838 24.75 -2.1 28.2 84 -4.5 23.8
22:55 1008 29.77 838 24.75 -2.1 28.2 84 -4.6 23.8
23:00 1008 29.77 838 24.75 -2.2 28 84 -4.6 23.7
23:05 1008 29.77 838 24.75 -2.1 28.2 84 -4.5 23.9
23:10 1008 29.77 838 24.75 -1.9 28.6 83 -4.4 24
23:15 1008 29.77 838 24.75 -1.8 28.7 82 -4.5 23.9
23:20 1008 29.77 838 24.75 -1.8 28.7 82 -4.5 23.9
23:25 1008 29.77 838 24.75 -1.9 28.6 83 -4.4 24.1
23:30 1008 29.77 838 24.75 -1.8 28.8 82 -4.5 23.8
23:35 1008 29.77 838 24.75 -2 28.5 81 -4.7 23.5
23:40 1008 29.77 838 24.75 -2.3 27.9 83 -4.8 23.4
23:45 1008 29.77 838 24.75 -2.5 27.6 83 -4.9 23.1
23:50 1008 29.77 838 24.75 -2.5 27.5 84 -4.9 23.3
23:55 1009 29.8 838 24.75 -2.4 27.6 84 -4.8 23.3
24:00 1008 29.77 838 24.75 -2.4 27.6 83 -4.9 23.3